Impacts METAR Board
IDs:

KDTW - Detroit Metro/Wayne, MI, US

Updated at: 2200 UTC 21 May 2022
Potential Impact None Slight Moderate High
Time 21/10Z 21/11Z 21/12Z 21/13Z 21/14Z 21/15Z 21/16Z 21/17Z 21/18Z 21/19Z 21/20Z 21/21Z 21/22Z
Temp74 73 73 74 74 68 74 77 80 81 79 81 81
Dewpt63 64 64 65 65 63 62 61 62 63 59 57 54
Altim29.80 29.84 29.85 29.87 29.94 29.85 29.93 29.96 29.93 29.98 29.99 29.98 29.96
VIS10 10 10 10 3 9 10 10 10 10 10 10 10
CIG250 250 250 40 35 70 250 250 250 35 35 55 200
CoverOVCOVCOVCOVCOVCOVCOVCOVCBKNBKNOVCOVCOVC
FltCatVFRVFRVFRVFRMVFRVFRVFRVFRVFRVFRVFRVFRVFR
WX--------+TSRA SQ-RA--------------
WDir21022023025020030200240230330310320330
WSpd7 8 7 5 27 6 10 9 5 10 17 12 9
WGst-- -- -- -- 41 -- -- -- -- -- 25 -- --
Raw hourly METARs
KDTW 210953Z 21007KT 10SM SCT045 OVC250 23/17 A2980 RMK AO2 SLP085 T02330172 PNO $
KDTW 211053Z 22008KT 10SM FEW035 FEW045 OVC250 23/18 A2984 RMK AO2 SLP098 T02280178 PNO $
KDTW 211153Z 23007KT 10SM FEW040 SCT060 OVC250 23/18 A2985 RMK AO2 SLP103 T02280178 53019 PNO $
KDTW 211253Z 25005KT 10SM OVC040 23/18 A2987 RMK AO2 SLP110 T02330183 PNO $
KDTW 211358Z 20027G41KT 3SM +TSRA SQ BKN035CB OVC050 23/18 A2994 RMK AO2 LTG DSNT SW-N OCNL LTGIC OHD AND NE TS OHD AND NE MOV NE T02330183 PNO $
KDTW 211453Z 03006KT 9SM -RA SCT035 BKN070 OVC110 20/17 A2985 RMK AO2 TSE40 SLP102 TS MOV NE T02000172 58002 PNO $
KDTW 211553Z 20010KT 10SM FEW020 SCT100 OVC250 23/17 A2993 RMK AO2 RAE08 SLP130 T02330167 PNO $
KDTW 211653Z 24009KT 10SM SCT025 OVC250 25/16 A2996 RMK AO2 SLP139 T02500161 PNO $
KDTW 211753Z 23005KT 10SM SCT025 SCT070 BKN250 27/17 A2993 RMK AO2 SLP129 T02670167 10267 20200 50027 PNO $
KDTW 211853Z 33010KT 10SM BKN035 BKN070 BKN250 27/17 A2998 RMK AO2 SLP145 T02720172 PNO $
KDTW 211953Z 31017G25KT 10SM BKN035 OVC060 26/15 A2999 RMK AO2 SLP151 T02610150 PNO $
KDTW 212053Z 32012KT 10SM SCT035 BKN055 OVC200 27/14 A2998 RMK AO2 SLP147 T02720139 50016 PNO $
KDTW 212153Z 33009KT 10SM FEW035 SCT055 OVC200 27/12 A2996 RMK AO2 SLP139 T02720122 PNO $



Page loaded:  22:55 UTC  |   03:55 PM Pacific  |   04:55 PM Mountain  |   05:55 PM Central  |   06:55 PM Eastern

 

ADVISORIES

FORECASTS

FORECASTS

OBSERVATIONS

USER TOOLS

ABOUT US